createdAt,value
2017-04-08T00:00:57.657Z,0
2017-04-08T00:02:07.648Z,0
2017-04-08T00:03:18.168Z,0
2017-04-08T00:04:28.444Z,0
2017-04-08T00:05:38.710Z,0
2017-04-08T00:06:48.690Z,0
2017-04-08T00:07:58.951Z,0
2017-04-08T00:09:09.474Z,0
2017-04-08T00:10:19.431Z,0
2017-04-08T00:11:29.714Z,0
2017-04-08T00:12:39.990Z,0
2017-04-08T00:13:50.267Z,0
2017-04-08T00:15:00.485Z,0
2017-04-08T00:16:10.760Z,0
2017-04-08T00:17:21.044Z,0
2017-04-08T00:18:31.310Z,0
2017-04-08T00:19:41.281Z,0
2017-04-08T00:20:51.857Z,0
2017-04-08T00:22:02.143Z,0
2017-04-08T00:23:12.103Z,0
2017-04-08T00:24:21.749Z,0
2017-04-08T00:25:31.713Z,0
2017-04-08T00:26:42.326Z,0
2017-04-08T00:27:52.629Z,0
2017-04-08T00:29:02.585Z,0
2017-04-08T00:30:12.885Z,0
2017-04-08T00:31:23.157Z,0
2017-04-08T00:32:33.770Z,0
2017-04-08T00:33:44.052Z,0
2017-04-08T00:34:53.768Z,0
2017-04-08T00:36:04.043Z,0
2017-04-08T00:37:14.006Z,0
2017-04-08T00:38:24.278Z,0
2017-04-08T00:39:34.554Z,0
2017-04-08T00:40:44.518Z,0
2017-04-08T00:41:54.792Z,0
2017-04-08T00:43:04.767Z,0
2017-04-08T00:44:14.981Z,0
2017-04-08T00:45:24.951Z,0
2017-04-08T00:46:34.969Z,0
2017-04-08T00:47:45.254Z,0
2017-04-08T00:48:55.527Z,0
2017-04-08T00:50:06.054Z,0
2017-04-08T00:51:16.324Z,0
2017-04-08T00:52:26.281Z,0
2017-04-08T00:53:36.562Z,0
2017-04-08T00:54:46.835Z,0
2017-04-08T00:55:57.406Z,0
2017-04-08T00:57:07.670Z,0
2017-04-08T00:58:17.941Z,0
2017-04-08T00:59:28.223Z,0
2017-04-08T01:00:38.504Z,0
2017-04-08T01:01:48.726Z,0
2017-04-08T01:02:59.002Z,0
2017-04-08T01:04:09.283Z,0
2017-04-08T01:05:19.561Z,0
2017-04-08T01:06:29.579Z,0
2017-04-08T01:07:39.841Z,0
2017-04-08T01:08:50.112Z,0
2017-04-08T01:10:00.382Z,0
2017-04-08T01:11:10.665Z,0
2017-04-08T01:12:20.621Z,0
2017-04-08T01:13:31.149Z,0
2017-04-08T01:14:41.426Z,0
2017-04-08T01:15:51.691Z,0
2017-04-08T01:17:01.967Z,0
2017-04-08T01:18:12.238Z,0
2017-04-08T01:19:22.782Z,0
2017-04-08T01:20:32.750Z,0
2017-04-08T01:21:43.015Z,0
2017-04-08T01:22:53.290Z,0
2017-04-08T01:24:03.260Z,0
2017-04-08T01:25:13.788Z,0
2017-04-08T01:26:23.748Z,0
2017-04-08T01:27:33.706Z,0
2017-04-08T01:28:43.976Z,0
2017-04-08T01:29:54.258Z,0
2017-04-08T01:31:04.824Z,0
2017-04-08T01:32:14.781Z,0
2017-04-08T01:33:25.053Z,0
2017-04-08T01:34:35.331Z,0
2017-04-08T01:35:45.607Z,0
2017-04-08T01:36:56.134Z,0
2017-04-08T01:38:06.412Z,0
2017-04-08T01:39:16.709Z,0
2017-04-08T01:40:27.005Z,0
2017-04-08T01:41:37.268Z,0
2017-04-08T01:42:47.787Z,0
2017-04-08T01:43:57.755Z,0
2017-04-08T01:45:07.408Z,0
2017-04-08T01:46:17.694Z,0
2017-04-08T01:47:27.353Z,0
2017-04-08T01:48:37.880Z,0
2017-04-08T01:49:48.149Z,0
2017-04-08T01:50:58.431Z,0
2017-04-08T01:52:08.391Z,0
2017-04-08T01:53:18.361Z,0
2017-04-08T01:54:28.923Z,0
2017-04-08T01:55:39.202Z,0
2017-04-08T01:56:49.481Z,0
2017-04-08T01:57:59.437Z,0
2017-04-08T01:59:09.718Z,0
2017-04-08T02:00:20.238Z,0
2017-04-08T02:01:30.195Z,0
2017-04-08T02:02:40.159Z,0
2017-04-08T02:03:50.436Z,0
2017-04-08T02:05:00.711Z,0
2017-04-08T02:06:10.924Z,0
2017-04-08T02:07:21.210Z,0
2017-04-08T02:08:31.174Z,0
2017-04-08T02:09:41.131Z,0
2017-04-08T02:10:51.092Z,0
2017-04-08T02:12:01.617Z,0
2017-04-08T02:13:11.596Z,0
2017-04-08T02:14:21.558Z,0
2017-04-08T02:15:31.819Z,0
2017-04-08T02:16:41.775Z,0
2017-04-08T02:17:52.005Z,0
2017-04-08T02:19:02.274Z,0
2017-04-08T02:20:12.560Z,0
2017-04-08T02:21:22.827Z,0
2017-04-08T02:22:33.109Z,0
2017-04-08T02:23:43.680Z,0
2017-04-08T02:24:53.641Z,0
2017-04-08T02:26:03.921Z,0
2017-04-08T02:27:14.203Z,0
2017-04-08T02:28:24.166Z,0
2017-04-08T02:29:34.745Z,0
2017-04-08T02:30:44.706Z,0
2017-04-08T02:31:54.351Z,0
2017-04-08T02:33:04.304Z,0
2017-04-08T02:34:14.581Z,0
2017-04-08T02:35:25.106Z,0
2017-04-08T02:36:35.371Z,0
2017-04-08T02:37:45.652Z,0
2017-04-08T02:38:55.925Z,0
2017-04-08T02:40:06.198Z,0
2017-04-08T02:41:16.766Z,0
2017-04-08T02:42:27.041Z,0
2017-04-08T02:43:37.300Z,0
2017-04-08T02:44:47.254Z,0
2017-04-08T02:45:56.902Z,0
2017-04-08T02:47:07.418Z,0
2017-04-08T02:48:17.384Z,0
2017-04-08T02:49:27.664Z,0
2017-04-08T02:50:37.942Z,0
2017-04-08T02:51:48.205Z,0
2017-04-08T02:52:58.144Z,0
2017-04-08T02:54:08.416Z,0
2017-04-08T02:55:18.380Z,0
2017-04-08T02:56:28.694Z,0
2017-04-08T02:57:38.967Z,0
2017-04-08T02:58:49.627Z,0
2017-04-08T02:59:59.893Z,0
2017-04-08T03:01:10.175Z,0
2017-04-08T03:02:20.125Z,0
2017-04-08T03:03:30.399Z,0
2017-04-08T03:04:40.965Z,0
2017-04-08T03:05:51.245Z,0
2017-04-08T03:07:01.568Z,0
2017-04-08T03:08:11.519Z,0
2017-04-08T03:09:21.789Z,0
2017-04-08T03:10:32.093Z,0
2017-04-08T03:11:42.053Z,0
2017-04-08T03:12:52.311Z,0
2017-04-08T03:14:02.624Z,0
2017-04-08T03:15:12.898Z,0
2017-04-08T03:16:23.423Z,0
2017-04-08T03:17:33.389Z,0
2017-04-08T03:18:43.351Z,0
2017-04-08T03:19:53.327Z,0
2017-04-08T03:21:03.339Z,0
2017-04-08T03:22:13.914Z,0
2017-04-08T03:23:23.575Z,0
2017-04-08T03:24:33.848Z,0
2017-04-08T03:25:43.811Z,0
2017-04-08T03:26:53.796Z,0
2017-04-08T03:28:04.318Z,0
2017-04-08T03:29:14.585Z,0
2017-04-08T03:30:24.877Z,0
2017-04-08T03:31:35.149Z,0
2017-04-08T03:32:45.412Z,0
2017-04-08T03:33:55.994Z,0
2017-04-08T03:35:06.259Z,0
2017-04-08T03:36:16.537Z,0
2017-04-08T03:37:26.816Z,0
2017-04-08T03:38:37.087Z,0
2017-04-08T03:39:47.957Z,0
2017-04-08T03:40:58.232Z,0
2017-04-08T03:42:08.502Z,0
2017-04-08T03:43:18.773Z,0
2017-04-08T03:44:29.040Z,0
2017-04-08T03:45:39.241Z,0
2017-04-08T03:46:49.520Z,0
2017-04-08T03:47:59.790Z,0
2017-04-08T03:49:09.756Z,0
2017-04-08T03:50:20.031Z,0
2017-04-08T03:51:30.250Z,0
2017-04-08T03:52:40.520Z,0
2017-04-08T03:53:50.488Z,0
2017-04-08T03:55:00.769Z,0
2017-04-08T03:56:10.437Z,0
2017-04-08T03:57:20.957Z,0
2017-04-08T03:58:31.225Z,0
2017-04-08T03:59:41.500Z,0
2017-04-08T04:00:51.143Z,0
2017-04-08T04:02:01.418Z,0
2017-04-08T04:03:11.993Z,0
2017-04-08T04:04:22.285Z,0
2017-04-08T04:05:32.554Z,0
2017-04-08T04:06:42.823Z,0
2017-04-08T04:07:53.116Z,0
2017-04-08T04:09:03.638Z,0
2017-04-08T04:10:13.918Z,0
2017-04-08T04:11:24.186Z,0
2017-04-08T04:12:34.501Z,0
2017-04-08T04:13:44.147Z,0
2017-04-08T04:14:54.366Z,0
2017-04-08T04:16:04.629Z,0
2017-04-08T04:17:14.904Z,0
2017-04-08T04:18:25.171Z,0
2017-04-08T04:19:34.853Z,0
2017-04-08T04:20:45.422Z,0
2017-04-08T04:21:55.373Z,0
2017-04-08T04:23:05.657Z,0
2017-04-08T04:24:15.629Z,0
2017-04-08T04:25:25.904Z,0
2017-04-08T04:26:36.437Z,0
2017-04-08T04:27:46.713Z,0
2017-04-08T04:28:56.991Z,0
2017-04-08T04:30:07.272Z,0
2017-04-08T04:31:17.553Z,0
2017-04-08T04:32:28.079Z,0
2017-04-08T04:33:38.342Z,0
2017-04-08T04:34:48.618Z,0
2017-04-08T04:35:58.588Z,0
2017-04-08T04:37:08.862Z,0
2017-04-08T04:38:19.435Z,0
2017-04-08T04:39:29.696Z,0
2017-04-08T04:40:39.983Z,0
2017-04-08T04:41:50.245Z,0
2017-04-08T04:43:00.521Z,4
2017-04-08T04:44:11.049Z,4
2017-04-08T04:45:21.013Z,0
2017-04-08T04:46:31.284Z,0
2017-04-08T04:47:41.539Z,0
2017-04-08T04:48:51.818Z,0
2017-04-08T04:50:02.347Z,0
2017-04-08T04:51:12.631Z,0
2017-04-08T04:52:22.890Z,0
2017-04-08T04:53:33.165Z,4
2017-04-08T04:54:43.439Z,4
2017-04-08T04:55:53.662Z,4
2017-04-08T04:57:03.943Z,0
2017-04-08T04:58:14.221Z,0
2017-04-08T04:59:24.521Z,0
2017-04-08T05:00:34.484Z,0
2017-04-08T05:01:45.070Z,4
2017-04-08T05:02:55.050Z,4
2017-04-08T05:04:05.326Z,4
2017-04-08T05:05:15.292Z,4
2017-04-08T05:06:25.575Z,4
2017-04-08T05:07:35.781Z,4
2017-04-08T05:08:46.066Z,4
2017-04-08T05:09:56.334Z,4
2017-04-08T05:11:06.611Z,4
2017-04-08T05:12:16.879Z,4
2017-04-08T05:13:27.406Z,4
2017-04-08T05:14:37.682Z,8
2017-04-08T05:15:47.951Z,4
2017-04-08T05:16:58.232Z,4
2017-04-08T05:18:08.499Z,4
2017-04-08T05:19:19.026Z,4
2017-04-08T05:20:29.300Z,4
2017-04-08T05:21:39.582Z,8
2017-04-08T05:22:49.553Z,8
2017-04-08T05:23:59.831Z,8
2017-04-08T05:25:10.357Z,8
2017-04-08T05:26:19.690Z,8
2017-04-08T05:27:30.073Z,8
2017-04-08T05:28:40.067Z,8
2017-04-08T05:29:50.334Z,8
2017-04-08T05:31:00.603Z,8
2017-04-08T05:32:10.891Z,8
2017-04-08T05:33:20.562Z,8
2017-04-08T05:34:30.205Z,8
2017-04-08T05:35:40.478Z,8
2017-04-08T05:36:51.040Z,12
2017-04-08T05:38:01.332Z,12
2017-04-08T05:39:11.301Z,12
2017-04-08T05:40:21.578Z,12
2017-04-08T05:41:31.544Z,12
2017-04-08T05:42:42.077Z,12
2017-04-08T05:43:52.053Z,12
2017-04-08T05:45:02.324Z,16
2017-04-08T05:46:12.600Z,12
2017-04-08T05:47:22.873Z,12
2017-04-08T05:48:33.101Z,16
2017-04-08T05:49:42.775Z,16
2017-04-08T05:50:52.745Z,16
2017-04-08T05:52:03.041Z,16
2017-04-08T05:53:13.007Z,16
2017-04-08T05:54:23.533Z,16
2017-04-08T05:55:33.500Z,16
2017-04-08T05:56:43.468Z,16
2017-04-08T05:57:53.431Z,20
2017-04-08T05:59:03.709Z,20
2017-04-08T06:00:14.232Z,20
2017-04-08T06:01:24.505Z,16
2017-04-08T06:02:34.784Z,20
2017-04-08T06:03:45.051Z,16
2017-04-08T06:04:55.016Z,20
2017-04-08T06:06:05.280Z,20
2017-04-08T06:07:14.941Z,20
2017-04-08T06:08:24.904Z,16
2017-04-08T06:09:35.192Z,16
2017-04-08T06:10:45.481Z,16
2017-04-08T06:11:55.700Z,16
2017-04-08T06:13:05.679Z,16
2017-04-08T06:14:15.955Z,12
2017-04-08T06:15:25.929Z,12
2017-04-08T06:16:35.897Z,12
2017-04-08T06:17:46.490Z,12
2017-04-08T06:18:56.796Z,12
2017-04-08T06:20:07.083Z,12
2017-04-08T06:21:17.039Z,16
2017-04-08T06:22:27.325Z,16
2017-04-08T06:23:37.864Z,20
2017-04-08T06:24:47.837Z,24
2017-04-08T06:25:58.109Z,40
2017-04-08T06:27:08.084Z,28
2017-04-08T06:28:17.422Z,36
2017-04-08T06:29:27.935Z,32
2017-04-08T06:30:38.273Z,48
2017-04-08T06:31:48.543Z,28
2017-04-08T06:32:58.513Z,28
2017-04-08T06:34:08.790Z,28
2017-04-08T06:35:19.321Z,28
2017-04-08T06:36:29.599Z,28
2017-04-08T06:37:39.888Z,36
2017-04-08T06:38:49.858Z,32
2017-04-08T06:40:00.138Z,28
2017-04-08T06:41:10.358Z,32
2017-04-08T06:42:20.639Z,28
2017-04-08T06:43:30.618Z,28
2017-04-08T06:44:40.908Z,24
2017-04-08T06:45:50.873Z,24
2017-04-08T06:47:01.402Z,32
2017-04-08T06:48:11.375Z,24
2017-04-08T06:49:21.644Z,24
2017-04-08T06:50:31.926Z,24
2017-04-08T06:51:42.195Z,24
2017-04-08T06:52:52.085Z,24
2017-04-08T06:54:02.059Z,24
2017-04-08T06:55:12.367Z,20
2017-04-08T06:56:22.654Z,20
2017-04-08T06:57:32.632Z,20
2017-04-08T06:58:43.165Z,20
2017-04-08T06:59:53.442Z,20
2017-04-08T07:01:03.732Z,20
2017-04-08T07:02:14.000Z,20
2017-04-08T07:03:24.297Z,24
2017-04-08T07:04:34.814Z,28
2017-04-08T07:05:44.775Z,32
2017-04-08T07:06:54.744Z,32
2017-04-08T07:08:05.021Z,32
2017-04-08T07:09:15.002Z,32
2017-04-08T07:10:25.221Z,32
2017-04-08T07:11:35.502Z,32
2017-04-08T07:12:45.776Z,28
2017-04-08T07:13:55.763Z,32
2017-04-08T07:15:06.042Z,32
2017-04-08T07:16:16.619Z,32
2017-04-08T07:17:26.892Z,28
2017-04-08T07:18:37.065Z,28
2017-04-08T07:19:47.344Z,32
2017-04-08T07:20:57.298Z,36
2017-04-08T07:22:07.219Z,32
2017-04-08T07:23:17.498Z,36
2017-04-08T07:24:27.785Z,32
2017-04-08T07:25:38.062Z,36
2017-04-08T07:26:48.030Z,36
2017-04-08T07:27:58.616Z,32
2017-04-08T07:29:08.886Z,32
2017-04-08T07:30:18.855Z,36
2017-04-08T07:31:28.823Z,36
2017-04-08T07:32:39.106Z,32
2017-04-08T07:33:49.319Z,36
2017-04-08T07:34:59.291Z,40
2017-04-08T07:36:09.244Z,40
2017-04-08T07:37:19.526Z,40
2017-04-08T07:38:29.803Z,44
2017-04-08T07:39:40.405Z,44
2017-04-08T07:40:50.370Z,48
2017-04-08T07:42:00.354Z,48
2017-04-08T07:43:10.315Z,44
2017-04-08T07:44:20.586Z,40
2017-04-08T07:45:31.141Z,44
2017-04-08T07:46:41.411Z,44
2017-04-08T07:47:51.685Z,48
2017-04-08T07:49:01.974Z,56
2017-04-08T07:50:12.256Z,56
2017-04-08T07:51:22.536Z,56
2017-04-08T07:52:32.503Z,56
2017-04-08T07:53:42.801Z,64
2017-04-08T07:54:52.790Z,64
2017-04-08T07:56:03.075Z,68
2017-04-08T07:57:13.603Z,84
2017-04-08T07:58:23.887Z,60
2017-04-08T07:59:34.159Z,60
2017-04-08T08:00:44.639Z,60
2017-04-08T08:01:54.622Z,60
2017-04-08T08:03:04.854Z,52
2017-04-08T08:04:14.826Z,52
2017-04-08T08:05:24.488Z,52
2017-04-08T08:06:34.469Z,52
2017-04-08T08:07:44.457Z,52
2017-04-08T08:08:54.732Z,48
2017-04-08T08:10:05.030Z,48
2017-04-08T08:11:14.998Z,52
2017-04-08T08:12:25.299Z,48
2017-04-08T08:13:35.333Z,48
2017-04-08T08:14:45.852Z,56
2017-04-08T08:15:55.813Z,84
2017-04-08T08:17:06.095Z,68
2017-04-08T08:18:16.063Z,48
2017-04-08T08:19:26.339Z,48
2017-04-08T08:20:36.550Z,48
2017-04-08T08:21:46.835Z,52
2017-04-08T08:22:56.798Z,56
2017-04-08T08:24:07.094Z,64
2017-04-08T08:25:16.446Z,76
2017-04-08T08:26:26.970Z,68
2017-04-08T08:27:37.250Z,84
2017-04-08T08:28:47.527Z,60
2017-04-08T08:29:57.836Z,72
2017-04-08T08:31:07.807Z,76
2017-04-08T08:32:18.345Z,72
2017-04-08T08:33:28.632Z,76
2017-04-08T08:34:38.914Z,104
2017-04-08T08:35:49.391Z,96
2017-04-08T08:36:59.673Z,108
2017-04-08T08:38:10.264Z,68
2017-04-08T08:39:20.252Z,72
2017-04-08T08:40:30.526Z,100
2017-04-08T08:41:40.807Z,72
2017-04-08T08:42:51.179Z,68
2017-04-08T08:44:01.705Z,104
2017-04-08T08:45:11.984Z,68
2017-04-08T08:46:21.969Z,68
2017-04-08T08:47:32.258Z,64
2017-04-08T08:48:42.534Z,64
2017-04-08T08:49:53.083Z,64
2017-04-08T08:51:03.370Z,76
2017-04-08T08:52:13.063Z,68
2017-04-08T08:53:23.336Z,68
2017-04-08T08:54:33.314Z,88
2017-04-08T08:55:43.596Z,72
2017-04-08T08:56:53.571Z,64
2017-04-08T08:58:03.552Z,64
2017-04-08T08:59:13.826Z,60
2017-04-08T09:00:24.127Z,60
2017-04-08T09:01:34.675Z,64
2017-04-08T09:02:44.959Z,60
2017-04-08T09:03:55.266Z,112
2017-04-08T09:05:05.558Z,84
2017-04-08T09:06:15.221Z,72
2017-04-08T09:07:25.153Z,64
2017-04-08T09:08:35.459Z,60
2017-04-08T09:09:45.430Z,84
2017-04-08T09:10:55.713Z,100
2017-04-08T09:12:06.006Z,72
2017-04-08T09:13:16.524Z,72
2017-04-08T09:14:26.507Z,96
2017-04-08T09:15:36.792Z,68
2017-04-08T09:16:46.802Z,68
2017-04-08T09:17:56.770Z,60
2017-04-08T09:19:07.027Z,56
2017-04-08T09:20:17.324Z,64
2017-04-08T09:21:27.634Z,60
2017-04-08T09:22:37.921Z,56
2017-04-08T09:23:48.213Z,56
2017-04-08T09:24:58.492Z,52
2017-04-08T09:26:08.466Z,52
2017-04-08T09:27:18.443Z,56
2017-04-08T09:28:28.732Z,60
2017-04-08T09:29:39.031Z,56
2017-04-08T09:30:49.585Z,64
2017-04-08T09:31:59.869Z,72
2017-04-08T09:33:09.849Z,64
2017-04-08T09:34:19.834Z,68
2017-04-08T09:35:30.131Z,60
2017-04-08T09:36:40.377Z,52
2017-04-08T09:37:50.362Z,52
2017-04-08T09:39:00.346Z,56
2017-04-08T09:40:10.014Z,52
2017-04-08T09:41:19.681Z,52
2017-04-08T09:42:30.255Z,48
2017-04-08T09:43:40.230Z,48
2017-04-08T09:44:50.204Z,48
2017-04-08T09:46:00.486Z,52
2017-04-08T09:47:10.763Z,52
2017-04-08T09:48:21.310Z,56
2017-04-08T09:49:31.600Z,76
2017-04-08T09:50:41.892Z,68
2017-04-08T09:51:52.193Z,128
2017-04-08T09:53:02.484Z,84
2017-04-08T09:54:12.733Z,80
2017-04-08T09:55:23.029Z,68
2017-04-08T09:56:33.006Z,68
2017-04-08T09:57:43.315Z,64
2017-04-08T09:58:53.605Z,60
2017-04-08T10:00:03.849Z,60
2017-04-08T10:01:13.841Z,52
2017-04-08T10:02:24.132Z,48
2017-04-08T10:03:34.434Z,48
2017-04-08T10:04:44.718Z,52
2017-04-08T10:05:54.933Z,68
2017-04-08T10:07:05.223Z,64
2017-04-08T10:08:15.508Z,124
2017-04-08T10:09:25.804Z,92
2017-04-08T10:10:35.475Z,76
2017-04-08T10:11:45.706Z,76
2017-04-08T10:12:55.993Z,68
2017-04-08T10:14:05.983Z,64
2017-04-08T10:15:16.008Z,64
2017-04-08T10:16:26.295Z,64
2017-04-08T10:17:36.838Z,84
2017-04-08T10:18:47.131Z,116
2017-04-08T10:19:57.421Z,68
2017-04-08T10:21:07.724Z,120
2017-04-08T10:22:17.712Z,100
2017-04-08T10:23:28.006Z,96
2017-04-08T10:24:38.277Z,76
2017-04-08T10:25:48.589Z,72
2017-04-08T10:26:58.881Z,68
2017-04-08T10:28:09.184Z,60
2017-04-08T10:29:19.726Z,60
2017-04-08T10:30:30.028Z,60
2017-04-08T10:31:39.994Z,60
2017-04-08T10:32:50.304Z,60
2017-04-08T10:34:00.283Z,68
2017-04-08T10:35:10.864Z,116
2017-04-08T10:36:21.154Z,120
2017-04-08T10:37:31.439Z,120
2017-04-08T10:38:41.735Z,88
2017-04-08T10:39:52.033Z,88
2017-04-08T10:41:02.569Z,92
2017-04-08T10:42:12.847Z,108
2017-04-08T10:43:23.135Z,80
2017-04-08T10:44:32.804Z,76
2017-04-08T10:45:43.094Z,72
2017-04-08T10:46:53.736Z,68
2017-04-08T10:48:04.050Z,68
2017-04-08T10:49:14.339Z,64
2017-04-08T10:50:24.641Z,64
2017-04-08T10:51:34.946Z,60
2017-04-08T10:52:45.513Z,60
2017-04-08T10:53:55.843Z,64
2017-04-08T10:55:05.871Z,64
2017-04-08T10:56:16.171Z,64
2017-04-08T10:57:26.451Z,68
2017-04-08T10:58:37.012Z,68
2017-04-08T10:59:46.990Z,68
2017-04-08T11:00:57.274Z,68
2017-04-08T11:02:07.561Z,120
2017-04-08T11:03:17.887Z,72
2017-04-08T11:04:28.139Z,80
2017-04-08T11:05:38.431Z,60
2017-04-08T11:06:48.736Z,100
2017-04-08T11:07:59.032Z,92
2017-04-08T11:09:09.055Z,104
2017-04-08T11:10:19.280Z,104
2017-04-08T11:11:28.941Z,100
2017-04-08T11:12:39.242Z,68
2017-04-08T11:13:49.543Z,96
2017-04-08T11:14:59.215Z,92
2017-04-08T11:16:09.812Z,88
2017-04-08T11:17:19.806Z,64
2017-04-08T11:18:30.119Z,112
2017-04-08T11:19:40.410Z,76
2017-04-08T11:20:50.071Z,124
2017-04-08T11:22:00.654Z,104
2017-04-08T11:23:10.958Z,84
2017-04-08T11:24:21.239Z,80
2017-04-08T11:25:31.531Z,72
2017-04-08T11:26:41.507Z,84
2017-04-08T11:27:52.098Z,116
2017-04-08T11:29:02.390Z,72
2017-04-08T11:30:12.689Z,120
2017-04-08T11:31:22.989Z,100
2017-04-08T11:32:32.965Z,112
2017-04-08T11:33:43.209Z,116
2017-04-08T11:34:53.185Z,116
2017-04-08T11:36:02.885Z,76
2017-04-08T11:37:12.871Z,108
2017-04-08T11:38:22.875Z,92
2017-04-08T11:39:33.163Z,112
2017-04-08T11:40:43.142Z,112
2017-04-08T11:41:53.445Z,112
2017-04-08T11:43:03.741Z,100
2017-04-08T11:44:13.717Z,108
2017-04-08T11:45:24.321Z,80
2017-04-08T11:46:34.629Z,104
2017-04-08T11:47:44.287Z,100
2017-04-08T11:48:54.583Z,104
2017-04-08T11:50:04.867Z,68
2017-04-08T11:51:15.460Z,76
2017-04-08T11:52:25.752Z,68
2017-04-08T11:53:36.029Z,64
2017-04-08T11:54:45.712Z,76
2017-04-08T11:55:55.692Z,72
2017-04-08T11:57:05.918Z,64
2017-04-08T11:58:16.233Z,68
2017-04-08T11:59:26.219Z,108
2017-04-08T12:00:36.199Z,108
2017-04-08T12:01:46.161Z,68
2017-04-08T12:02:56.718Z,68
2017-04-08T12:04:06.373Z,84
2017-04-08T12:05:16.343Z,68
2017-04-08T12:06:26.671Z,100
2017-04-08T12:07:36.957Z,96
2017-04-08T12:08:47.518Z,52
2017-04-08T12:09:57.818Z,52
2017-04-08T12:11:07.840Z,56
2017-04-08T12:12:18.128Z,60
2017-04-08T12:13:28.413Z,60
2017-04-08T12:14:38.954Z,60
2017-04-08T12:15:49.270Z,56
2017-04-08T12:16:59.575Z,52
2017-04-08T12:18:09.852Z,96
2017-04-08T12:19:20.138Z,92
2017-04-08T12:20:30.735Z,92
2017-04-08T12:21:40.094Z,96
2017-04-08T12:22:50.082Z,92
2017-04-08T12:24:00.362Z,96
2017-04-08T12:25:10.648Z,96
2017-04-08T12:26:20.886Z,88
2017-04-08T12:27:31.174Z,88
2017-04-08T12:28:41.163Z,92
2017-04-08T12:29:51.469Z,92
2017-04-08T12:31:01.139Z,88
2017-04-08T12:32:11.680Z,60
2017-04-08T12:33:21.995Z,52
2017-04-08T12:34:32.296Z,84
2017-04-08T12:35:42.607Z,92
2017-04-08T12:36:52.894Z,80
2017-04-08T12:38:03.481Z,84
2017-04-08T12:39:13.158Z,84
2017-04-08T12:40:23.434Z,84
2017-04-08T12:41:33.719Z,84
2017-04-08T12:42:44.001Z,84
2017-04-08T12:43:54.221Z,84
2017-04-08T12:45:04.186Z,84
2017-04-08T12:46:13.846Z,84
2017-04-08T12:47:23.831Z,88
2017-04-08T12:48:34.118Z,88
2017-04-08T12:49:44.703Z,52
2017-04-08T12:50:54.687Z,52
2017-04-08T12:52:04.980Z,52
2017-04-08T12:53:15.059Z,52
2017-04-08T12:54:25.343Z,60
2017-04-08T12:55:35.943Z,76
2017-04-08T12:56:45.931Z,56
2017-04-08T12:57:56.225Z,72
2017-04-08T12:59:06.513Z,80
2017-04-08T13:00:16.801Z,72
2017-04-08T13:01:26.765Z,52
2017-04-08T13:02:37.050Z,52
2017-04-08T13:03:47.043Z,52
2017-04-08T13:04:57.343Z,56
2017-04-08T13:06:07.616Z,52
2017-04-08T13:07:18.149Z,52
2017-04-08T13:08:28.451Z,52
2017-04-08T13:09:38.420Z,52
2017-04-08T13:10:48.711Z,48
2017-04-08T13:11:58.695Z,52
2017-04-08T13:13:09.229Z,48
2017-04-08T13:14:19.603Z,48
2017-04-08T13:15:29.907Z,48
2017-04-08T13:16:40.188Z,44
2017-04-08T13:17:49.863Z,40
2017-04-08T13:19:00.092Z,36
2017-04-08T13:20:10.370Z,36
2017-04-08T13:21:20.342Z,32
2017-04-08T13:22:30.636Z,32
2017-04-08T13:23:40.929Z,32
2017-04-08T13:24:51.477Z,36
2017-04-08T13:26:01.770Z,24
2017-04-08T13:27:11.735Z,24
2017-04-08T13:28:22.034Z,24
2017-04-08T13:29:32.032Z,20
2017-04-08T13:30:42.568Z,24
2017-04-08T13:31:52.839Z,24
2017-04-08T13:33:03.121Z,24
2017-04-08T13:34:13.433Z,20
2017-04-08T13:35:23.712Z,16
2017-04-08T13:36:34.241Z,16
2017-04-08T13:37:44.523Z,16
2017-04-08T13:38:54.808Z,16
2017-04-08T13:40:05.086Z,16
2017-04-08T13:41:15.381Z,12
2017-04-08T13:42:25.966Z,12
2017-04-08T13:43:36.238Z,12
2017-04-08T13:44:46.533Z,12
2017-04-08T13:45:56.860Z,12
2017-04-08T13:47:07.152Z,16
2017-04-08T13:48:17.116Z,12
2017-04-08T13:49:27.415Z,12
2017-04-08T13:50:37.388Z,12
2017-04-08T13:51:47.671Z,12
2017-04-08T13:52:57.641Z,12
2017-04-08T13:54:07.925Z,12
2017-04-08T13:55:17.905Z,8
2017-04-08T13:56:28.209Z,12
2017-04-08T13:57:38.202Z,12
2017-04-08T13:58:48.547Z,16
2017-04-08T13:59:59.116Z,12
2017-04-08T14:01:09.417Z,12
2017-04-08T14:02:19.723Z,12
2017-04-08T14:03:29.444Z,12
2017-04-08T14:04:39.775Z,12
2017-04-08T14:05:50.384Z,16
2017-04-08T14:07:00.383Z,16
2017-04-08T14:08:10.074Z,12
2017-04-08T14:09:20.404Z,12
2017-04-08T14:10:30.707Z,12
2017-04-08T14:11:40.957Z,12
2017-04-08T14:12:50.969Z,16
2017-04-08T14:14:00.945Z,16
2017-04-08T14:15:11.255Z,12
2017-04-08T14:16:21.551Z,16
2017-04-08T14:17:32.160Z,16
2017-04-08T14:18:42.150Z,16
2017-04-08T14:19:52.170Z,20
2017-04-08T14:21:02.197Z,16
2017-04-08T14:22:11.896Z,20
2017-04-08T14:23:22.516Z,20
2017-04-08T14:24:32.543Z,20
2017-04-08T14:25:42.838Z,20
2017-04-08T14:26:53.138Z,24
2017-04-08T14:28:03.126Z,20
2017-04-08T14:29:13.689Z,20
2017-04-08T14:30:23.701Z,24
2017-04-08T14:31:34.022Z,20
2017-04-08T14:32:44.346Z,20
2017-04-08T14:33:54.646Z,16
2017-04-08T14:35:04.963Z,16
2017-04-08T14:36:15.291Z,16
2017-04-08T14:37:25.591Z,12
2017-04-08T14:38:35.870Z,16
2017-04-08T14:39:46.171Z,12
2017-04-08T14:40:56.779Z,16
2017-04-08T14:42:07.077Z,16
2017-04-08T14:43:17.415Z,16
2017-04-08T14:44:27.736Z,16
2017-04-08T14:45:38.373Z,16
2017-04-08T14:46:48.602Z,16
2017-04-08T14:47:58.602Z,16
2017-04-08T14:49:08.928Z,12
2017-04-08T14:50:19.217Z,12
2017-04-08T14:51:29.217Z,12
2017-04-08T14:52:39.759Z,12
2017-04-08T14:53:49.768Z,12
2017-04-08T14:55:00.206Z,16
2017-04-08T14:56:10.526Z,16
2017-04-08T14:57:20.816Z,16
2017-04-08T14:58:31.074Z,16
2017-04-08T14:59:41.386Z,16
2017-04-08T15:00:51.369Z,12
2017-04-08T15:02:01.040Z,12
2017-04-08T15:03:11.021Z,16
2017-04-08T15:04:21.325Z,16
2017-04-08T15:05:31.315Z,12
2017-04-08T15:06:41.325Z,16
2017-04-08T15:07:51.635Z,16
2017-04-08T15:09:01.635Z,16
2017-04-08T15:10:12.737Z,20
2017-04-08T15:11:23.048Z,20
2017-04-08T15:12:33.353Z,16
2017-04-08T15:13:43.650Z,20
2017-04-08T15:14:53.632Z,20
2017-04-08T15:16:04.199Z,20
2017-04-08T15:17:14.473Z,24
2017-04-08T15:18:24.452Z,24
2017-04-08T15:19:34.738Z,24
2017-04-08T15:20:45.047Z,24
2017-04-08T15:21:55.291Z,24
2017-04-08T15:23:05.587Z,24
2017-04-08T15:24:15.576Z,20
2017-04-08T15:25:25.572Z,20
2017-04-08T15:26:35.874Z,20
2017-04-08T15:27:46.473Z,24
2017-04-08T15:28:56.821Z,20
2017-04-08T15:30:06.803Z,20
2017-04-08T15:31:17.125Z,16
2017-04-08T15:32:27.437Z,20
2017-04-08T15:33:37.430Z,20
2017-04-08T15:34:47.724Z,20
2017-04-08T15:35:57.720Z,20
2017-04-08T15:37:08.048Z,20
2017-04-08T15:38:18.351Z,16
2017-04-08T15:39:28.591Z,16
2017-04-08T15:40:38.602Z,20
2017-04-08T15:41:48.937Z,20
2017-04-08T15:42:59.239Z,24
2017-04-08T15:44:09.563Z,24
2017-04-08T15:45:20.118Z,24
2017-04-08T15:46:29.824Z,24
2017-04-08T15:47:39.507Z,24
2017-04-08T15:48:49.849Z,28
2017-04-08T15:50:00.158Z,28
2017-04-08T15:51:10.711Z,28
2017-04-08T15:52:20.751Z,28
2017-04-08T15:53:31.050Z,24
2017-04-08T15:54:41.052Z,24
2017-04-08T15:55:51.382Z,24
2017-04-08T15:57:01.971Z,24
2017-04-08T15:58:12.292Z,24
2017-04-08T15:59:22.317Z,20
2017-04-08T16:00:32.338Z,20
2017-04-08T16:01:42.657Z,20
2017-04-08T16:02:52.886Z,20
2017-04-08T16:04:03.222Z,16
2017-04-08T16:05:13.261Z,16
2017-04-08T16:06:23.557Z,16
2017-04-08T16:07:33.891Z,16
2017-04-08T16:08:44.570Z,16
2017-04-08T16:09:54.945Z,12
2017-04-08T16:11:05.268Z,12
2017-04-08T16:12:15.589Z,8
2017-04-08T16:13:25.906Z,8
2017-04-08T16:14:36.793Z,12
2017-04-08T16:15:46.823Z,8
2017-04-08T16:16:56.832Z,8
2017-04-08T16:18:06.861Z,8
2017-04-08T16:19:16.867Z,8
2017-04-08T16:20:27.480Z,8
2017-04-08T16:21:37.794Z,8
2017-04-08T16:22:47.791Z,4
2017-04-08T16:23:57.784Z,8
2017-04-08T16:25:08.127Z,4
2017-04-08T16:26:18.050Z,8
2017-04-08T16:27:28.057Z,4
2017-04-08T16:28:38.387Z,4
2017-04-08T16:29:48.692Z,4
2017-04-08T16:30:59.033Z,4
2017-04-08T16:32:09.593Z,4
2017-04-08T16:33:19.597Z,4
2017-04-08T16:34:29.273Z,4
2017-04-08T16:35:39.606Z,4
2017-04-08T16:36:49.927Z,4
2017-04-08T16:38:00.488Z,4
2017-04-08T16:39:10.871Z,4
2017-04-08T16:40:20.578Z,4
2017-04-08T16:41:30.577Z,4
2017-04-08T16:42:40.873Z,4
2017-04-08T16:43:50.882Z,8
2017-04-08T16:45:01.201Z,8
2017-04-08T16:46:11.207Z,8
2017-04-08T16:47:21.190Z,8
2017-04-08T16:48:31.202Z,4
2017-04-08T16:49:41.834Z,4
2017-04-08T16:50:51.843Z,8
2017-04-08T16:52:01.538Z,4
2017-04-08T16:53:11.827Z,4